Time;durP1;ratioP1;P1;durP2;ratioP2;P2;SDS_P1;SDS_P2;PMS_P1;PMS_P2;Temp;Humidity;BMP_temperature;BMP_pressure;BME280_temperature;BME280_humidity;BME280_pressure;Samples;Min_cycle;Max_cycle;Signal;HPM_P1;HPM_P2
2022/01/03 00:01:29;;;;;;;1.05;0.88;;;11.80;99.90;;;;;;5053885;28;20183;-66
2022/01/03 00:03:55;;;;;;;1.08;1.00;;;11.80;99.90;;;;;;5054262;28;20221;-65
2022/01/03 00:06:21;;;;;;;1.10;1.10;;;11.80;99.90;;;;;;5054253;28;20259;-65
2022/01/03 00:08:47;;;;;;;1.00;1.00;;;11.90;99.90;;;;;;5054190;28;20651;-66
2022/01/03 00:11:18;;;;;;;3.42;1.15;;;11.90;99.90;;;;;;5053606;28;20672;-66
2022/01/03 00:13:47;;;;;;;1.38;0.90;;;11.90;99.90;;;;;;5053912;28;20206;-64
2022/01/03 00:16:13;;;;;;;1.80;0.77;;;11.90;99.90;;;;;;5054151;28;20166;-65
2022/01/03 00:18:39;;;;;;;3.15;1.70;;;11.90;99.90;;;;;;5053949;28;20672;-65
2022/01/03 00:21:10;;;;;;;0.95;0.60;;;11.90;99.90;;;;;;5053627;28;20652;-66
2022/01/03 00:23:38;;;;;;;1.40;1.15;;;11.90;99.90;;;;;;5052761;28;20178;-66
2022/01/03 00:26:06;;;;;;;0.90;0.90;;;11.90;99.90;;;;;;5053127;28;20181;-65
2022/01/03 00:28:39;;;;;;;1.33;1.23;;;11.90;99.90;;;;;;5053679;28;20182;-67
2022/01/03 00:31:05;;;;;;;2.03;1.15;;;11.90;99.90;;;;;;5053519;28;20169;-66
2022/01/03 00:33:32;;;;;;;1.30;1.20;;;11.90;99.90;;;;;;5054412;28;20265;-66
2022/01/03 00:36:04;;;;;;;1.65;1.27;;;11.90;99.90;;;;;;5053530;28;20236;-64
2022/01/03 00:38:34;;;;;;;1.52;1.20;;;11.90;99.90;;;;;;5053654;28;20579;-66
2022/01/03 00:41:02;;;;;;;1.80;1.05;;;11.90;99.90;;;;;;5053483;28;20181;-66
2022/01/03 00:43:29;;;;;;;3.42;1.00;;;12.00;99.90;;;;;;5053576;28;20182;-65
2022/01/03 00:45:55;;;;;;;8.32;1.00;;;12.00;99.90;;;;;;5053607;28;20227;-64
2022/01/03 00:48:22;;;;;;;1.17;0.77;;;12.10;99.90;;;;;;5053249;28;20194;-65
2022/01/03 00:50:48;;;;;;;1.05;1.05;;;12.20;99.90;;;;;;5053409;28;20201;-65
2022/01/03 00:53:14;;;;;;;9.00;2.45;;;12.20;99.90;;;;;;5053279;28;20178;-65
2022/01/03 00:56:01;;;;;;;0.68;0.68;;;12.20;99.90;;;;;;5053548;28;20171;-65
2022/01/03 00:58:33;;;;;;;2.55;1.13;;;12.30;99.90;;;;;;5057439;28;20742;-66
2022/01/03 01:01:00;;;;;;;2.65;1.08;;;12.40;99.90;;;;;;5073798;28;20505;-67
2022/01/03 01:03:32;;;;;;;2.28;1.10;;;12.40;99.90;;;;;;5073361;28;20179;-66
2022/01/03 01:06:01;;;;;;;1.00;0.93;;;12.40;99.90;;;;;;5073441;28;20174;-65
2022/01/03 01:08:28;;;;;;;1.27;1.13;;;12.40;99.90;;;;;;5073233;28;20207;-66
2022/01/03 01:10:58;;;;;;;14.23;2.13;;;12.40;99.90;;;;;;5071879;28;20715;-66
2022/01/03 01:13:24;;;;;;;1.25;1.17;;;12.40;99.90;;;;;;5073218;28;20166;-66
2022/01/03 01:15:50;;;;;;;0.83;0.70;;;12.40;99.90;;;;;;5073418;28;20177;-64
2022/01/03 01:18:16;;;;;;;2.40;1.00;;;12.40;99.90;;;;;;5071912;28;20194;-65
2022/01/03 01:20:41;;;;;;;1.97;1.07;;;12.30;99.90;;;;;;5073236;28;20252;-64
2022/01/03 01:23:09;;;;;;;0.67;0.67;;;12.30;99.90;;;;;;5073088;28;20263;-66
2022/01/03 01:28:04;;;;;;;0.80;0.80;;;12.30;99.90;;;;;;5073091;28;20198;-65
2022/01/03 01:30:30;;;;;;;0.80;0.80;;;12.30;99.90;;;;;;5073048;28;20213;-64
2022/01/03 01:33:05;;;;;;;3.50;1.07;;;12.20;99.90;;;;;;5073559;28;20169;-66
2022/01/03 01:35:50;;;;;;;0.65;0.63;;;12.20;99.90;;;;;;5073545;28;20770;-66
2022/01/03 01:38:19;;;;;;;3.90;0.98;;;12.20;99.90;;;;;;5074846;28;20579;-65
2022/01/03 01:40:46;;;;;;;0.70;0.70;;;12.20;99.90;;;;;;5076881;28;20173;-65
2022/01/03 01:43:17;;;;;;;1.20;1.10;;;12.20;99.90;;;;;;5076657;28;20176;-63
2022/01/03 01:45:47;;;;;;;0.60;0.60;;;12.10;99.90;;;;;;5077100;28;20214;-65
2022/01/03 01:48:13;;;;;;;1.05;0.93;;;12.10;99.90;;;;;;5076593;28;20548;-64
2022/01/03 01:50:41;;;;;;;1.57;0.80;;;12.10;99.90;;;;;;5076602;28;20204;-65
2022/01/03 01:53:08;;;;;;;0.90;0.90;;;12.10;99.90;;;;;;5076450;28;20489;-66
2022/01/03 01:55:39;;;;;;;1.25;0.60;;;12.10;99.90;;;;;;5076853;28;20166;-64
2022/01/03 01:58:20;;;;;;;1.00;1.00;;;12.10;99.90;;;;;;5076632;28;20555;-65
2022/01/03 02:00:49;;;;;;;2.70;0.90;;;12.10;99.90;;;;;;5076426;28;20539;-66
2022/01/03 02:03:25;;;;;;;1.10;1.02;;;12.10;99.90;;;;;;5075888;28;20411;-66
2022/01/03 02:06:09;;;;;;;0.65;0.65;;;12.10;99.90;;;;;;5076536;28;20184;-65
2022/01/03 02:08:44;;;;;;;1.07;0.93;;;12.10;99.90;;;;;;5076476;28;20648;-65
2022/01/03 02:11:20;;;;;;;0.90;0.90;;;12.10;99.90;;;;;;5076311;28;20413;-65
2022/01/03 02:13:47;;;;;;;3.15;0.95;;;12.20;99.90;;;;;;5076495;28;20222;-64
2022/01/03 02:16:13;;;;;;;1.00;0.90;;;12.20;99.90;;;;;;5076339;28;20249;-66
2022/01/03 02:18:40;;;;;;;1.03;1.03;;;12.20;99.90;;;;;;5076099;28;20247;-65
2022/01/03 02:21:06;;;;;;;0.93;0.70;;;12.20;99.90;;;;;;5074712;28;20181;-65
2022/01/03 02:23:33;;;;;;;1.30;1.20;;;12.20;99.90;;;;;;5076169;28;20173;-65
2022/01/03 02:25:59;;;;;;;0.47;0.47;;;12.20;99.90;;;;;;5076092;28;20182;-65
2022/01/03 02:28:24;;;;;;;2.60;1.07;;;12.30;99.90;;;;;;5076315;28;20690;-65
2022/01/03 02:30:52;;;;;;;0.77;0.77;;;12.30;99.90;;;;;;5076374;28;20252;-65
2022/01/03 02:33:18;;;;;;;0.77;0.77;;;12.30;99.90;;;;;;5075772;28;20165;-65
2022/01/03 02:35:46;;;;;;;2.28;0.70;;;12.20;99.90;;;;;;5076221;28;20193;-64
2022/01/03 02:38:13;;;;;;;5.82;0.85;;;12.20;99.90;;;;;;5075780;28;20201;-65
2022/01/03 02:40:38;;;;;;;0.90;0.90;;;12.20;99.90;;;;;;5076112;28;20592;-64
2022/01/03 02:43:04;;;;;;;0.80;0.73;;;12.10;99.90;;;;;;5075514;28;20202;-66
2022/01/03 02:45:30;;;;;;;6.77;1.63;;;12.10;99.90;;;;;;5075782;28;20180;-66
2022/01/03 02:48:02;;;;;;;0.93;0.80;;;12.10;99.90;;;;;;5074024;28;20686;-64
2022/01/03 02:50:32;;;;;;;1.10;0.80;;;12.10;99.90;;;;;;5075854;28;20538;-66
2022/01/03 02:52:58;;;;;;;2.83;1.17;;;12.10;99.90;;;;;;5075278;28;20497;-64
2022/01/03 02:55:26;;;;;;;1.47;0.90;;;12.10;99.90;;;;;;5075601;28;20311;-66
2022/01/03 02:57:55;;;;;;;0.75;0.75;;;12.00;99.90;;;;;;5075525;28;20429;-65
2022/01/03 03:00:26;;;;;;;0.63;0.63;;;12.00;99.90;;;;;;5055627;28;20182;-68
2022/01/03 03:02:52;;;;;;;0.73;0.63;;;12.00;99.90;;;;;;5055064;28;20175;-65
2022/01/03 03:05:18;;;;;;;2.15;1.75;;;12.10;99.90;;;;;;5055369;28;20629;-68
2022/01/03 03:07:45;;;;;;;1.90;1.20;;;12.00;99.90;;;;;;5055469;28;20232;-65
2022/01/03 03:10:14;;;;;;;2.58;1.02;;;12.00;99.90;;;;;;5055030;28;20216;-65
2022/01/03 03:12:40;;;;;;;1.45;1.35;;;12.00;99.90;;;;;;5055077;28;20531;-65
2022/01/03 03:15:08;;;;;;;1.38;0.80;;;12.00;99.90;;;;;;5055308;28;20185;-66
2022/01/03 03:17:35;;;;;;;2.55;1.15;;;11.90;99.90;;;;;;5054916;28;20197;-65
2022/01/03 03:20:28;;;;;;;0.80;0.80;;;11.90;99.90;;;;;;5055194;28;20260;-67
2022/01/03 03:22:55;;;;;;;0.85;0.85;;;11.90;99.90;;;;;;5053154;28;20710;-67
2022/01/03 03:25:22;;;;;;;0.95;0.90;;;11.80;99.90;;;;;;5054992;28;20273;-66
2022/01/03 03:27:51;;;;;;;1.05;0.95;;;11.70;99.90;;;;;;5054673;28;20233;-67
2022/01/03 03:30:21;;;;;;;1.15;1.15;;;11.70;99.90;;;;;;5055003;28;20595;-67
2022/01/03 03:32:49;;;;;;;1.30;0.88;;;11.70;99.90;;;;;;5054747;28;20280;-66
2022/01/03 03:35:15;;;;;;;0.70;0.70;;;11.70;99.90;;;;;;5054935;28;20237;-67
2022/01/03 03:37:41;;;;;;;2.15;0.65;;;11.60;99.90;;;;;;5055076;28;20594;-65
2022/01/03 03:40:07;;;;;;;0.90;0.83;;;11.70;99.90;;;;;;5055199;28;20184;-65
2022/01/03 03:42:34;;;;;;;0.88;0.88;;;11.70;99.90;;;;;;5054307;28;20181;-66
2022/01/03 03:44:59;;;;;;;1.55;1.45;;;11.70;99.90;;;;;;5054555;28;20257;-66
2022/01/03 03:47:25;;;;;;;1.13;0.73;;;11.70;99.90;;;;;;5054680;28;20280;-66
2022/01/03 03:49:51;;;;;;;0.73;0.73;;;11.70;99.90;;;;;;5054489;28;20683;-67
2022/01/03 03:52:16;;;;;;;0.50;0.50;;;11.70;99.90;;;;;;5054218;28;20496;-65
2022/01/03 03:54:42;;;;;;;0.93;0.93;;;11.70;99.90;;;;;;5054545;28;20175;-66
2022/01/03 03:57:08;;;;;;;0.70;0.70;;;11.60;99.90;;;;;;5054303;28;20193;-64
2022/01/03 03:59:35;;;;;;;0.60;0.60;;;11.60;99.90;;;;;;5067237;28;20677;-67
2022/01/03 04:02:01;;;;;;;0.80;0.63;;;11.60;99.90;;;;;;5073889;28;20172;-64
2022/01/03 04:04:27;;;;;;;0.60;0.50;;;11.50;99.90;;;;;;5074208;28;20666;-66
2022/01/03 04:06:53;;;;;;;0.73;0.73;;;11.50;99.90;;;;;;5074201;28;20434;-67
2022/01/03 04:09:19;;;;;;;3.63;0.88;;;11.50;99.90;;;;;;5074382;28;20196;-64
2022/01/03 04:11:44;;;;;;;4.20;0.80;;;11.40;99.90;;;;;;5073758;28;20165;-66
2022/01/03 04:14:10;;;;;;;2.97;0.77;;;11.40;99.90;;;;;;5074018;28;20254;-66
2022/01/03 04:16:36;;;;;;;1.53;0.60;;;11.30;99.90;;;;;;5073990;28;20615;-65
2022/01/03 04:19:04;;;;;;;0.80;0.80;;;11.20;99.90;;;;;;5074181;28;20417;-66
2022/01/03 04:21:29;;;;;;;0.77;0.63;;;11.20;99.90;;;;;;5073726;28;20175;-65
2022/01/03 04:23:55;;;;;;;1.03;0.80;;;11.20;99.90;;;;;;5074124;28;20176;-65
2022/01/03 04:26:21;;;;;;;1.40;0.83;;;11.20;99.90;;;;;;5073700;28;20674;-65
2022/01/03 04:28:47;;;;;;;7.00;0.83;;;11.20;99.90;;;;;;5073574;28;20188;-65
2022/01/03 04:31:12;;;;;;;1.10;1.10;;;11.20;99.90;;;;;;5073743;28;20457;-65
2022/01/03 04:33:38;;;;;;;1.23;0.63;;;11.30;99.90;;;;;;5073731;28;20523;-68
2022/01/03 04:36:05;;;;;;;0.60;0.60;;;11.30;99.90;;;;;;5073665;28;20557;-65
2022/01/03 04:38:32;;;;;;;3.33;0.85;;;11.30;99.90;;;;;;5073742;28;20549;-67
2022/01/03 04:41:01;;;;;;;0.60;0.60;;;11.40;99.90;;;;;;5073707;28;20173;-64
2022/01/03 04:43:27;;;;;;;1.88;1.38;;;11.40;99.90;;;;;;5073588;28;20176;-65
2022/01/03 04:45:54;;;;;;;3.80;0.73;;;11.50;99.90;;;;;;5072044;28;20173;-66
2022/01/03 04:48:20;;;;;;;2.35;0.75;;;11.50;99.90;;;;;;5073445;28;20192;-66
2022/01/03 04:50:46;;;;;;;1.27;0.67;;;11.50;99.90;;;;;;5073512;28;20212;-66
2022/01/03 04:53:12;;;;;;;1.13;1.03;;;11.50;99.90;;;;;;5073238;28;20439;-66
2022/01/03 04:55:38;;;;;;;1.20;1.03;;;11.50;99.90;;;;;;5073516;28;20172;-67
2022/01/03 04:58:03;;;;;;;1.33;0.67;;;11.60;99.90;;;;;;5072242;28;20256;-68
2022/01/03 05:00:29;;;;;;;0.50;0.50;;;11.50;99.90;;;;;;5053391;28;20174;-67
2022/01/03 05:02:54;;;;;;;1.67;0.90;;;11.50;99.90;;;;;;5053014;28;20210;-67
2022/01/03 05:05:21;;;;;;;0.70;0.70;;;11.50;99.90;;;;;;5053365;28;20193;-66
2022/01/03 05:07:47;;;;;;;1.20;0.82;;;11.40;99.90;;;;;;5053327;28;20202;-66
2022/01/03 05:10:13;;;;;;;0.67;0.67;;;11.30;99.90;;;;;;5053160;28;20667;-65
2022/01/03 05:12:39;;;;;;;0.93;0.87;;;11.10;99.90;;;;;;5059170;28;20400;-66
2022/01/03 05:15:05;;;;;;;0.70;0.70;;;11.00;99.90;;;;;;5060066;28;20175;-66
2022/01/03 05:17:31;;;;;;;2.65;0.80;;;10.90;99.90;;;;;;5059744;28;20204;-66
2022/01/03 05:19:58;;;;;;;4.50;1.23;;;10.80;99.90;;;;;;5059880;28;20254;-65
2022/01/03 05:22:24;;;;;;;0.55;0.50;;;10.60;99.90;;;;;;5059747;28;20189;-66
2022/01/03 05:24:50;;;;;;;1.07;0.60;;;10.60;99.90;;;;;;5059672;28;20170;-64
2022/01/03 05:27:15;;;;;;;1.77;0.97;;;10.50;99.90;;;;;;5059835;28;20189;-66
2022/01/03 05:29:41;;;;;;;1.87;0.50;;;10.50;99.90;;;;;;5059920;28;20204;-66
2022/01/03 05:32:07;;;;;;;0.67;0.67;;;10.40;99.90;;;;;;5059378;28;20260;-67
2022/01/03 05:34:32;;;;;;;1.40;0.60;;;10.30;99.90;;;;;;5059914;28;20169;-66
2022/01/03 05:36:58;;;;;;;2.27;1.20;;;10.30;99.90;;;;;;5059741;28;20555;-67
2022/01/03 05:39:24;;;;;;;1.27;1.00;;;10.30;99.90;;;;;;5059856;28;20165;-67
2022/01/03 05:41:49;;;;;;;0.83;0.80;;;10.20;99.90;;;;;;5059564;28;20639;-65
2022/01/03 05:44:15;;;;;;;0.57;0.57;;;10.20;99.90;;;;;;5059727;28;20177;-66
2022/01/03 05:46:41;;;;;;;1.47;0.70;;;10.20;99.90;;;;;;5059844;28;20202;-65
2022/01/03 05:49:08;;;;;;;1.33;1.07;;;10.20;99.90;;;;;;5059614;28;20203;-65
2022/01/03 05:51:34;;;;;;;1.45;1.13;;;10.10;99.90;;;;;;5059217;28;20169;-66
2022/01/03 05:53:59;;;;;;;1.00;1.00;;;10.10;99.90;;;;;;5058339;28;20265;-66
2022/01/03 05:56:25;;;;;;;0.57;0.57;;;10.10;99.90;;;;;;5059369;28;20280;-66
2022/01/03 05:58:51;;;;;;;1.90;1.20;;;10.10;99.90;;;;;;5066900;28;20184;-65
2022/01/03 06:01:19;;;;;;;0.87;0.87;;;10.10;99.90;;;;;;5079214;28;20419;-65
2022/01/03 06:03:45;;;;;;;1.35;0.50;;;10.10;99.90;;;;;;5079643;28;20763;-65
2022/01/03 06:08:36;;;;;;;1.83;1.03;;;10.10;99.90;;;;;;5079244;28;20165;-65
2022/01/03 06:11:03;;;;;;;1.33;0.93;;;10.20;99.90;;;;;;5079367;28;20677;-66
2022/01/03 06:13:29;;;;;;;1.58;1.42;;;10.10;99.90;;;;;;5079424;28;20403;-66
2022/01/03 06:15:55;;;;;;;1.23;0.73;;;10.10;99.90;;;;;;5079371;28;20626;-66
2022/01/03 06:18:21;;;;;;;1.13;0.83;;;10.20;99.90;;;;;;5079593;28;20747;-65
2022/01/03 06:20:48;;;;;;;0.70;0.70;;;10.10;99.90;;;;;;5079303;28;20402;-65
2022/01/03 06:23:16;;;;;;;0.88;0.88;;;10.20;99.90;;;;;;5076381;28;20235;-65
2022/01/03 06:25:41;;;;;;;2.38;0.80;;;10.10;99.90;;;;;;5076264;28;20176;-66
2022/01/03 06:28:08;;;;;;;0.47;0.47;;;10.10;99.90;;;;;;5076297;28;20219;-66
2022/01/03 06:30:35;;;;;;;1.58;0.88;;;10.10;99.90;;;;;;5076023;28;20199;-64
2022/01/03 06:33:02;;;;;;;2.10;1.80;;;10.10;99.90;;;;;;5075615;28;20260;-65
2022/01/03 06:35:28;;;;;;;0.98;0.98;;;10.10;99.90;;;;;;5076556;28;20587;-65
2022/01/03 06:37:54;;;;;;;1.85;0.52;;;10.10;99.90;;;;;;5077092;28;20188;-63
2022/01/03 06:40:20;;;;;;;3.33;1.50;;;10.10;99.90;;;;;;5077604;28;20385;-66
2022/01/03 06:42:46;;;;;;;0.70;0.70;;;10.10;99.90;;;;;;5078555;28;20778;-64
2022/01/03 06:45:12;;;;;;;1.03;0.90;;;10.10;99.90;;;;;;5078489;28;20172;-65
2022/01/03 06:47:38;;;;;;;3.87;1.27;;;10.20;99.90;;;;;;5083949;28;20423;-65
2022/01/03 06:50:05;;;;;;;0.60;0.60;;;10.20;99.90;;;;;;5084069;28;20192;-63
2022/01/03 06:52:30;;;;;;;1.17;1.17;;;10.10;99.90;;;;;;5083075;28;20165;-65
2022/01/03 06:54:56;;;;;;;1.43;0.90;;;10.10;99.90;;;;;;5082771;28;20165;-64
2022/01/03 06:57:22;;;;;;;2.97;1.47;;;10.10;99.90;;;;;;5082611;28;20193;-64
2022/01/03 06:59:47;;;;;;;0.77;0.70;;;10.20;99.90;;;;;;5066301;28;20196;-66
2022/01/03 07:02:13;;;;;;;2.80;1.47;;;10.10;99.90;;;;;;5059674;28;20528;-67
2022/01/03 07:04:39;;;;;;;0.80;0.80;;;10.10;99.90;;;;;;5055500;28;20228;-66
2022/01/03 07:07:05;;;;;;;1.63;1.03;;;10.10;99.90;;;;;;5055335;28;20665;-65
2022/01/03 07:09:31;;;;;;;2.08;0.77;;;10.10;99.90;;;;;;5055404;28;20463;-66
2022/01/03 07:11:56;;;;;;;3.28;1.00;;;10.10;99.90;;;;;;5054871;28;20165;-65
2022/01/03 07:19:58;;;;;;;3.35;1.23;;;10.10;99.90;;;;;;5055005;28;20171;-64
2022/01/03 07:22:25;;;;;;;1.60;0.88;;;10.10;99.90;;;;;;5054561;28;20169;-64
2022/01/03 07:24:52;;;;;;;1.10;1.10;;;10.10;99.90;;;;;;5055126;28;20185;-64
2022/01/03 07:27:18;;;;;;;3.20;0.80;;;10.00;99.90;;;;;;5074941;28;20188;-66
2022/01/03 07:29:44;;;;;;;0.80;0.80;;;10.00;99.90;;;;;;5074675;28;20184;-65
2022/01/03 07:32:10;;;;;;;1.50;0.80;;;10.00;99.90;;;;;;5074605;28;20251;-66
2022/01/03 07:34:36;;;;;;;0.80;0.70;;;10.00;99.90;;;;;;5073592;28;20169;-64
2022/01/03 07:37:02;;;;;;;2.50;1.23;;;10.00;99.90;;;;;;5074669;28;20184;-64
2022/01/03 07:39:31;;;;;;;2.63;1.30;;;9.90;99.90;;;;;;5074643;28;20208;-64
2022/01/03 07:42:00;;;;;;;2.05;0.75;;;9.90;99.90;;;;;;5074167;28;20464;-66
2022/01/03 07:44:26;;;;;;;1.92;1.30;;;9.90;99.90;;;;;;5074322;28;20669;-65
2022/01/03 07:46:54;;;;;;;0.88;0.80;;;9.90;99.90;;;;;;5074505;28;20250;-65
2022/01/03 07:49:20;;;;;;;0.65;0.65;;;9.90;99.90;;;;;;5074351;28;20184;-65
2022/01/03 07:51:46;;;;;;;1.45;1.00;;;9.90;99.90;;;;;;5074056;28;20244;-66
2022/01/03 07:54:12;;;;;;;1.43;1.17;;;9.90;99.90;;;;;;5074186;28;20248;-64
2022/01/03 07:56:37;;;;;;;3.50;1.23;;;9.90;99.90;;;;;;5074296;28;20242;-65
2022/01/03 07:59:05;;;;;;;1.33;0.90;;;10.00;99.90;;;;;;5064682;28;20181;-67
2022/01/03 08:01:31;;;;;;;1.05;0.80;;;10.00;99.90;;;;;;5053842;28;20185;-67
2022/01/03 08:03:57;;;;;;;1.25;1.20;;;10.00;99.90;;;;;;5054132;28;20181;-67
2022/01/03 08:06:22;;;;;;;1.47;1.33;;;10.00;99.90;;;;;;5053956;28;20686;-65
2022/01/03 08:08:48;;;;;;;2.23;1.30;;;10.00;99.90;;;;;;5053903;28;20181;-66
2022/01/03 08:11:14;;;;;;;0.97;0.97;;;10.00;99.90;;;;;;5052325;28;20219;-64
2022/01/03 08:13:39;;;;;;;1.73;1.60;;;9.90;99.90;;;;;;5053818;28;20200;-66
2022/01/03 08:16:05;;;;;;;3.60;1.73;;;10.00;99.90;;;;;;5053986;28;20248;-64
2022/01/03 08:18:33;;;;;;;2.33;1.90;;;9.90;99.90;;;;;;5066261;28;20253;-65
2022/01/03 08:20:59;;;;;;;1.85;1.70;;;9.80;99.90;;;;;;5053831;28;20162;-69
2022/01/03 08:23:25;;;;;;;2.97;2.10;;;9.80;99.90;;;;;;5055201;28;20169;-63
2022/01/03 08:25:51;;;;;;;2.67;1.37;;;9.70;99.90;;;;;;5053963;28;20174;-65
2022/01/03 08:28:17;;;;;;;1.40;1.30;;;9.60;99.90;;;;;;5053866;28;20189;-63
2022/01/03 08:30:42;;;;;;;2.40;1.50;;;9.60;99.90;;;;;;5053570;28;20242;-66
2022/01/03 08:33:09;;;;;;;8.87;2.57;;;9.50;99.90;;;;;;5061769;28;20180;-66
2022/01/03 08:35:35;;;;;;;1.63;1.52;;;9.50;99.90;;;;;;5079366;28;20212;-64
2022/01/03 08:38:04;;;;;;;2.17;1.80;;;9.40;99.90;;;;;;5073704;28;20220;-65
2022/01/03 08:40:31;;;;;;;1.33;1.23;;;9.40;99.90;;;;;;5073891;28;20165;-63
2022/01/03 08:42:57;;;;;;;1.77;1.50;;;9.40;99.90;;;;;;5073167;28;20570;-64
2022/01/03 08:45:23;;;;;;;4.55;1.75;;;9.40;99.90;;;;;;5072952;28;20196;-63
2022/01/03 08:47:49;;;;;;;3.63;1.83;;;9.40;99.90;;;;;;5073241;28;20701;-63
2022/01/03 08:50:18;;;;;;;2.15;1.60;;;9.40;99.90;;;;;;5064691;28;20236;-65
2022/01/03 08:52:48;;;;;;;3.08;1.48;;;9.40;99.90;;;;;;5052931;28;20251;-64
2022/01/03 08:55:14;;;;;;;3.75;2.10;;;9.50;99.90;;;;;;5053264;28;20177;-63
2022/01/03 08:57:41;;;;;;;1.57;1.30;;;9.50;99.90;;;;;;5053362;28;20243;-62
2022/01/03 09:00:08;;;;;;;1.30;1.20;;;9.60;99.90;;;;;;5071395;28;20423;-64
2022/01/03 09:02:33;;;;;;;2.17;1.60;;;9.70;99.90;;;;;;5072687;28;20255;-63
2022/01/03 09:04:59;;;;;;;1.90;1.80;;;9.80;99.90;;;;;;5073406;28;20291;-64
2022/01/03 09:07:24;;;;;;;2.20;1.97;;;9.80;99.90;;;;;;5072600;28;20188;-65
2022/01/03 09:09:50;;;;;;;1.73;1.50;;;9.90;99.90;;;;;;5072716;28;20238;-64
2022/01/03 09:12:16;;;;;;;5.80;1.97;;;9.90;99.90;;;;;;5073273;28;20168;-65
2022/01/03 09:14:42;;;;;;;3.50;1.97;;;10.00;99.90;;;;;;5073379;28;20180;-65
2022/01/03 09:17:08;;;;;;;1.83;1.73;;;10.10;99.90;;;;;;5073235;28;20270;-64
2022/01/03 09:19:35;;;;;;;3.00;1.70;;;10.20;99.90;;;;;;5073161;28;20663;-63
2022/01/03 09:22:13;;;;;;;7.25;2.13;;;10.20;99.90;;;;;;5072786;28;20439;-62
2022/01/03 09:30:07;;;;;;;4.65;1.48;;;10.60;99.90;;;;;;5073046;28;20235;-63
2022/01/03 09:32:33;;;;;;;1.93;1.73;;;10.70;99.90;;;;;;5071444;28;20174;-65
2022/01/03 09:35:00;;;;;;;3.55;1.80;;;10.80;99.90;;;;;;5073300;28;20374;-64
2022/01/03 09:37:26;;;;;;;4.43;1.98;;;10.80;99.90;;;;;;5072901;28;20528;-64
2022/01/03 09:39:54;;;;;;;2.73;2.37;;;10.90;99.90;;;;;;5073227;28;20252;-64
2022/01/03 09:42:29;;;;;;;6.95;1.70;;;11.00;99.90;;;;;;5072409;28;20394;-63
2022/01/03 09:44:56;;;;;;;2.25;1.60;;;11.10;99.90;;;;;;5072918;28;20223;-63
2022/01/03 09:47:23;;;;;;;9.50;3.90;;;11.20;99.90;;;;;;5072681;28;20221;-63
2022/01/03 09:49:49;;;;;;;2.90;2.30;;;11.20;99.90;;;;;;5072403;28;20548;-64
2022/01/03 09:52:20;;;;;;;2.67;1.40;;;11.30;99.90;;;;;;5072531;28;20412;-64
2022/01/03 09:54:46;;;;;;;4.10;3.80;;;11.40;99.90;;;;;;5072791;28;20416;-63
2022/01/03 09:57:14;;;;;;;1.40;1.30;;;11.40;99.90;;;;;;5072603;28;20198;-62
2022/01/03 09:59:41;;;;;;;1.50;0.80;;;11.40;99.90;;;;;;5061479;28;20663;-63
2022/01/03 10:02:07;;;;;;;1.33;1.13;;;11.40;99.90;;;;;;5056179;28;20416;-63
2022/01/03 10:04:33;;;;;;;1.17;0.70;;;11.50;99.90;;;;;;5056122;28;20434;-65
2022/01/03 10:06:59;;;;;;;3.70;1.30;;;11.50;99.90;;;;;;5056297;28;20191;-64
2022/01/03 10:09:26;;;;;;;3.77;1.50;;;11.60;99.90;;;;;;5056159;28;20849;-64
2022/01/03 10:11:52;;;;;;;0.90;0.77;;;11.70;99.90;;;;;;5055856;28;20409;-64
2022/01/03 10:14:17;;;;;;;3.83;1.40;;;11.70;99.90;;;;;;5056044;28;20471;-64
2022/01/03 10:16:45;;;;;;;1.37;1.27;;;11.80;99.90;;;;;;5056301;28;20487;-65
2022/01/03 10:19:12;;;;;;;1.45;1.35;;;11.80;99.90;;;;;;5056226;28;20458;-62
2022/01/03 10:21:44;;;;;;;3.90;1.70;;;11.90;99.90;;;;;;5055920;28;20183;-63
2022/01/03 10:24:12;;;;;;;2.77;1.40;;;12.00;99.90;;;;;;5056252;28;20396;-63
2022/01/03 10:26:38;;;;;;;3.60;1.17;;;12.10;99.90;;;;;;5055950;28;20496;-64
2022/01/03 10:29:20;;;;;;;2.70;0.87;;;12.10;99.90;;;;;;5055879;28;20446;-63
2022/01/03 10:31:48;;;;;;;2.73;1.73;;;12.20;99.90;;;;;;5055611;28;20897;-63
2022/01/03 10:34:16;;;;;;;2.73;1.77;;;12.20;99.90;;;;;;5056325;28;20456;-64
2022/01/03 10:36:44;;;;;;;1.97;1.40;;;12.30;99.90;;;;;;5055982;28;20429;-63
2022/01/03 10:39:13;;;;;;;1.07;0.80;;;12.30;99.90;;;;;;5055340;28;20973;-61
2022/01/03 10:41:38;;;;;;;4.90;1.20;;;12.30;99.90;;;;;;5055248;28;20441;-63
2022/01/03 10:44:04;;;;;;;0.87;0.87;;;12.40;99.90;;;;;;5055494;28;20974;-65
2022/01/03 10:46:33;;;;;;;3.13;1.10;;;12.40;99.90;;;;;;5055349;28;20234;-62
2022/01/03 10:49:16;;;;;;;3.00;1.30;;;12.40;99.90;;;;;;5055271;28;20551;-63
2022/01/03 10:51:42;;;;;;;1.43;0.90;;;12.40;99.90;;;;;;5055169;28;20911;-64
2022/01/03 10:54:10;;;;;;;2.00;1.17;;;12.40;99.90;;;;;;5055397;28;20425;-64
2022/01/03 10:56:41;;;;;;;2.23;0.93;;;12.40;99.90;;;;;;5055386;28;20948;-64
2022/01/03 10:59:18;;;;;;;3.43;1.27;;;12.50;99.90;;;;;;5065234;28;20414;-64
2022/01/03 11:01:48;;;;;;;0.80;0.70;;;12.50;99.90;;;;;;5074932;28;20925;-64
2022/01/03 11:04:26;;;;;;;3.23;0.83;;;12.50;99.90;;;;;;5074977;28;20422;-65
2022/01/03 11:10:43;;;;;;;4.57;2.27;;;12.60;99.90;;;;;;5075590;28;20447;-64
2022/01/03 11:13:18;;;;;;;1.23;0.90;;;12.70;99.90;;;;;;5074688;28;20463;-64
2022/01/03 11:15:55;;;;;;;1.47;0.90;;;12.70;99.90;;;;;;5075211;28;20409;-63
2022/01/03 11:18:29;;;;;;;4.00;1.10;;;12.70;99.90;;;;;;5075044;28;20456;-64
2022/01/03 11:21:14;;;;;;;1.07;0.60;;;12.70;99.90;;;;;;5074892;28;20435;-64
2022/01/03 11:23:42;;;;;;;2.77;1.40;;;12.80;99.90;;;;;;5074481;28;20426;-63
2022/01/03 11:26:11;;;;;;;2.47;0.90;;;12.90;99.90;;;;;;5074525;28;20458;-64
2022/01/03 11:28:36;;;;;;;0.83;0.83;;;12.90;99.90;;;;;;5074684;28;20456;-63
2022/01/03 11:31:03;;;;;;;3.37;0.93;;;12.90;99.90;;;;;;5074440;28;20491;-63
2022/01/03 11:33:30;;;;;;;2.30;1.00;;;13.00;99.90;;;;;;5074918;28;20461;-64
2022/01/03 11:35:58;;;;;;;1.23;0.97;;;13.10;99.90;;;;;;5074593;28;20410;-65
2022/01/03 11:38:28;;;;;;;3.80;1.03;;;13.10;99.90;;;;;;5073182;28;20924;-63
2022/01/03 11:40:53;;;;;;;0.80;0.80;;;13.20;99.90;;;;;;5074673;28;20418;-63
2022/01/03 11:43:19;;;;;;;0.80;0.80;;;13.20;99.90;;;;;;5074161;28;20397;-63
2022/01/03 11:45:45;;;;;;;2.20;0.60;;;13.30;99.90;;;;;;5073478;28;20172;-63
2022/01/03 11:48:12;;;;;;;2.20;1.10;;;13.30;99.90;;;;;;5072924;28;20195;-62
2022/01/03 11:50:39;;;;;;;2.00;1.40;;;13.40;99.90;;;;;;5074317;28;20204;-64
2022/01/03 11:53:07;;;;;;;3.13;2.00;;;13.40;99.90;;;;;;5074197;28;20437;-64
2022/01/03 11:55:34;;;;;;;1.10;1.00;;;13.40;99.90;;;;;;5073992;28;20508;-63
2022/01/03 12:06:04;;;;;;;2.80;1.27;;;13.40;99.90;;;;;;5054676;28;20953;-64
2022/01/03 12:08:33;;;;;;;3.50;1.30;;;13.40;99.90;;;;;;5054184;28;20422;-63
2022/01/03 12:11:00;;;;;;;1.70;1.57;;;13.40;99.90;;;;;;5053818;28;20463;-64
2022/01/03 12:14:10;;;;;;;4.73;0.50;;;13.40;99.90;;;;;;5054077;28;20777;-65
2022/01/03 12:16:37;;;;;;;2.60;0.77;;;13.50;99.90;;;;;;5034458;28;20436;-64
2022/01/03 12:19:06;;;;;;;1.90;0.63;;;13.50;99.90;;;;;;5053906;28;20926;-63
2022/01/03 12:21:47;;;;;;;2.77;2.10;;;13.60;99.90;;;;;;5052746;28;20837;-64
2022/01/03 12:24:31;;;;;;;0.83;0.60;;;13.60;99.90;;;;;;5054011;28;20415;-63
2022/01/03 12:27:12;;;;;;;0.50;0.50;;;13.60;99.90;;;;;;5053733;28;20471;-64
2022/01/03 12:29:50;;;;;;;0.93;0.93;;;13.60;99.90;;;;;;5053419;28;20465;-64
2022/01/03 12:32:16;;;;;;;0.70;0.70;;;13.50;99.90;;;;;;5053394;28;20428;-63
2022/01/03 12:34:42;;;;;;;1.33;1.10;;;13.40;99.90;;;;;;5053709;28;20449;-63
2022/01/03 12:37:17;;;;;;;0.80;0.80;;;13.40;99.90;;;;;;5053416;28;20430;-64
2022/01/03 12:40:04;;;;;;;3.97;0.90;;;13.30;99.90;;;;;;5053692;28;20180;-63
2022/01/03 12:45:39;;;;;;;3.13;0.73;;;13.30;99.90;;;;;;5053540;28;20422;-63
2022/01/03 12:48:10;;;;;;;0.53;0.53;;;13.30;99.90;;;;;;5053339;28;20481;-64
2022/01/03 12:50:37;;;;;;;0.80;0.70;;;13.20;99.90;;;;;;5053488;28;20537;-64
2022/01/03 12:53:04;;;;;;;1.07;0.70;;;13.20;99.90;;;;;;5053263;28;20385;-64
2022/01/03 12:55:40;;;;;;;4.17;0.70;;;13.20;99.90;;;;;;5053855;28;20392;-63
2022/01/03 12:58:16;;;;;;;2.70;0.90;;;13.20;99.90;;;;;;5054399;28;20449;-64
2022/01/03 13:00:51;;;;;;;5.03;1.50;;;13.20;99.90;;;;;;5073187;28;20491;-65
2022/01/03 13:03:27;;;;;;;2.07;0.70;;;13.20;99.90;;;;;;5072485;28;20413;-64
2022/01/03 13:06:18;;;;;;;2.17;0.90;;;13.10;99.90;;;;;;5073382;28;20417;-62
2022/01/03 13:08:55;;;;;;;0.50;0.50;;;13.10;99.90;;;;;;5073491;28;20414;-63
2022/01/03 13:11:22;;;;;;;0.63;0.63;;;13.10;99.90;;;;;;5072617;28;20410;-64
2022/01/03 13:14:15;;;;;;;2.30;1.00;;;13.00;99.90;;;;;;5073164;28;20968;-63
2022/01/03 13:16:58;;;;;;;0.90;0.87;;;13.00;99.90;;;;;;5073071;28;20500;-63
2022/01/03 13:19:29;;;;;;;0.70;0.70;;;13.00;99.90;;;;;;5073425;28;20410;-63
2022/01/03 13:22:04;;;;;;;0.70;0.57;;;12.90;99.90;;;;;;5072902;28;20776;-63
2022/01/03 13:24:34;;;;;;;1.07;1.00;;;12.90;99.90;;;;;;5073025;28;20952;-63